Time;durP1;ratioP1;P1;durP2;ratioP2;P2;SDS_P1;SDS_P2;PMS_P1;PMS_P2;Temp;Humidity;BMP_temperature;BMP_pressure;BME280_temperature;BME280_humidity;BME280_pressure;Samples;Min_cycle;Max_cycle;Signal;HPM_P1;HPM_P2
2023/08/26 00:01:32;;;;;;;6.55;3.95;;;;;;;26.43;58.11;98440.97;5093271;28;20458;-45
2023/08/26 00:03:58;;;;;;;10.80;6.25;;;;;;;26.32;58.39;98451.22;5075385;28;20067;-45
2023/08/26 00:06:24;;;;;;;8.57;4.50;;;;;;;26.16;58.84;98452.69;5093519;28;20409;-45
2023/08/26 00:08:52;;;;;;;27.73;14.82;;;;;;;25.99;59.04;98454.19;5092123;28;20444;-45
2023/08/26 00:11:18;;;;;;;11.13;5.43;;;;;;;25.96;59.60;98462.88;5093395;28;20379;-45
2023/08/26 00:13:44;;;;;;;13.60;6.32;;;;;;;26.18;60.72;98458.56;5093299;28;20023;-44
2023/08/26 00:16:11;;;;;;;10.55;5.60;;;;;;;26.76;59.94;98454.06;5093313;28;20107;-45
2023/08/26 00:18:37;;;;;;;10.48;5.35;;;;;;;27.35;57.81;98448.34;5093218;28;20016;-44
2023/08/26 00:21:03;;;;;;;24.40;5.57;;;;;;;27.67;56.98;98447.06;5093224;28;20028;-44
2023/08/26 00:23:31;;;;;;;15.50;5.30;;;;;;;27.81;55.98;98449.53;5092624;28;20032;-45
2023/08/26 00:25:57;;;;;;;11.48;5.22;;;;;;;27.88;55.10;98439.09;5093128;28;20032;-44
2023/08/26 00:28:23;;;;;;;14.40;5.22;;;;;;;27.80;55.36;98431.78;5093301;28;20027;-45
2023/08/26 00:30:59;;;;;;;12.50;5.00;;;;;;;27.59;55.76;98420.91;5093061;28;20028;-45
2023/08/26 00:33:26;;;;;;;12.13;4.93;;;;;;;27.88;55.03;98412.13;5091624;28;20024;-45
2023/08/26 00:35:52;;;;;;;13.05;4.90;;;;;;;28.01;55.22;98413.84;5092943;28;20024;-45
2023/08/26 00:38:18;;;;;;;18.92;5.97;;;;;;;28.00;54.98;98424.97;5092911;28;20065;-45
2023/08/26 00:40:43;;;;;;;21.73;5.32;;;;;;;28.23;54.45;98429.00;5092808;28;20028;-45
2023/08/26 00:43:09;;;;;;;8.95;3.85;;;;;;;28.41;52.85;98412.72;5092761;28;20035;-45
2023/08/26 00:45:40;;;;;;;19.02;4.75;;;;;;;28.14;53.46;98419.38;5092664;28;20067;-45
2023/08/26 00:48:08;;;;;;;8.10;4.38;;;;;;;27.87;53.76;98421.34;5092730;28;20094;-45
2023/08/26 00:50:37;;;;;;;10.32;4.55;;;;;;;27.67;54.94;98423.56;5092628;28;20020;-45
2023/08/26 00:53:03;;;;;;;17.58;5.40;;;;;;;27.54;55.10;98427.22;5092673;28;20093;-45
2023/08/26 00:55:30;;;;;;;7.63;4.50;;;;;;;27.33;55.15;98435.19;5074407;28;20111;-44
2023/08/26 00:57:56;;;;;;;13.48;4.90;;;;;;;27.03;55.85;98424.19;5092806;28;20463;-45
2023/08/26 01:00:22;;;;;;;10.73;4.80;;;;;;;27.12;56.88;98421.50;5074356;28;20028;-44
2023/08/26 01:02:49;;;;;;;21.83;10.63;;;;;;;27.15;56.25;98423.56;5057342;28;20050;-45
2023/08/26 01:05:16;;;;;;;14.35;5.45;;;;;;;27.18;55.90;98420.22;5108137;28;20036;-45
2023/08/26 01:07:44;;;;;;;14.10;6.50;;;;;;;27.14;56.06;98421.97;5092353;28;20467;-45
2023/08/26 01:10:10;;;;;;;22.50;6.53;;;;;;;26.96;57.29;98418.47;5091298;28;20089;-44
2023/08/26 01:12:57;;;;;;;12.43;5.25;;;;;;;26.90;56.79;98408.94;5091152;28;20035;-45
2023/08/26 01:15:26;;;;;;;13.35;5.57;;;;;;;26.82;57.34;98404.34;5092253;28;20024;-45
2023/08/26 01:17:54;;;;;;;11.50;4.68;;;;;;;27.08;57.14;98397.13;5092285;28;20401;-45
2023/08/26 01:20:20;;;;;;;14.05;5.55;;;;;;;27.40;56.63;98394.25;5092206;28;20501;-45
2023/08/26 01:22:48;;;;;;;14.05;5.22;;;;;;;27.57;55.32;98391.56;5090856;28;20028;-45
2023/08/26 01:25:16;;;;;;;8.80;4.13;;;;;;;27.26;55.10;98392.53;5092086;28;20073;-45
2023/08/26 01:27:41;;;;;;;11.65;5.05;;;;;;;27.10;56.60;98394.91;5090756;28;20032;-45
2023/08/26 01:30:08;;;;;;;13.07;4.78;;;;;;;26.93;56.45;98394.09;5092143;28;20027;-45
2023/08/26 01:32:55;;;;;;;15.27;4.95;;;;;;;26.51;57.30;98391.75;5092262;28;20028;-45
2023/08/26 01:35:28;;;;;;;10.63;4.20;;;;;;;26.34;58.19;98397.88;5091230;28;20397;-45
2023/08/26 01:37:54;;;;;;;8.02;3.97;;;;;;;26.61;57.94;98401.47;5091963;28;20405;-45
2023/08/26 01:40:21;;;;;;;11.60;4.55;;;;;;;26.66;57.58;98398.63;5090656;28;20753;-44
2023/08/26 01:42:48;;;;;;;13.45;4.65;;;;;;;26.91;57.13;98391.69;5091856;28;20024;-45
2023/08/26 01:45:14;;;;;;;10.82;5.07;;;;;;;27.05;55.95;98392.34;5091957;28;20107;-45
2023/08/26 01:47:39;;;;;;;17.83;5.50;;;;;;;27.00;56.58;98376.31;5091916;28;20103;-44
2023/08/26 01:50:05;;;;;;;10.82;4.47;;;;;;;27.09;55.84;98387.13;5091913;28;20495;-45
2023/08/26 01:52:31;;;;;;;10.27;4.70;;;;;;;26.86;55.80;98397.22;5091871;28;20043;-45
2023/08/26 01:54:57;;;;;;;9.90;4.57;;;;;;;26.61;56.35;98398.78;5090452;28;20390;-44
2023/08/26 01:57:22;;;;;;;10.15;4.50;;;;;;;26.27;57.07;98400.22;5091795;28;20410;-45
2023/08/26 01:59:48;;;;;;;12.85;5.70;;;;;;;26.21;58.23;98396.88;5091819;28;20016;-45
2023/08/26 02:02:14;;;;;;;20.70;6.63;;;;;;;26.42;57.94;98396.31;5090183;28;20071;-45
2023/08/26 02:04:39;;;;;;;15.60;5.38;;;;;;;26.36;57.88;98395.69;5091777;28;20028;-45
2023/08/26 02:07:05;;;;;;;15.15;4.75;;;;;;;26.19;58.87;98404.47;5091665;28;20068;-44
2023/08/26 02:09:31;;;;;;;24.55;6.47;;;;;;;26.28;58.96;98407.19;5091632;28;20155;-44
2023/08/26 02:11:56;;;;;;;20.02;6.38;;;;;;;26.37;58.97;98409.91;5091660;28;20020;-44
2023/08/26 02:14:22;;;;;;;12.50;4.63;;;;;;;26.44;58.76;98415.63;5090231;28;20024;-44
2023/08/26 02:16:48;;;;;;;13.00;4.55;;;;;;;26.40;57.86;98404.72;5091594;28;20394;-45
2023/08/26 02:19:13;;;;;;;11.10;4.60;;;;;;;26.31;57.92;98409.25;5091812;28;20498;-45
2023/08/26 02:21:39;;;;;;;19.10;5.90;;;;;;;26.31;58.46;98406.56;5091820;28;20537;-46
2023/08/26 02:24:05;;;;;;;14.60;5.88;;;;;;;26.44;57.79;98413.75;5091590;28;20032;-45
2023/08/26 02:26:31;;;;;;;11.23;5.43;;;;;;;26.41;57.77;98414.34;5091499;28;20095;-45
2023/08/26 02:28:57;;;;;;;13.63;4.93;;;;;;;26.29;57.71;98420.31;5091731;28;20105;-45
2023/08/26 02:31:23;;;;;;;8.23;4.50;;;;;;;26.29;57.71;98414.16;5091487;28;20505;-45
2023/08/26 02:33:49;;;;;;;14.65;5.80;;;;;;;26.41;57.45;98418.94;5090050;28;20553;-45
2023/08/26 02:36:14;;;;;;;11.73;4.63;;;;;;;26.46;56.90;98418.78;5091302;28;20020;-45
2023/08/26 02:38:40;;;;;;;8.75;4.90;;;;;;;26.54;56.82;98425.31;5073337;28;20028;-45
2023/08/26 02:41:07;;;;;;;14.98;5.55;;;;;;;26.71;56.41;98425.41;5091409;28;20024;-45
2023/08/26 02:43:33;;;;;;;7.80;4.80;;;;;;;26.97;56.13;98435.44;5091211;28;20039;-45
2023/08/26 02:45:58;;;;;;;9.35;5.20;;;;;;;27.12;55.71;98423.41;5093289;28;20012;-45
2023/08/26 02:48:25;;;;;;;13.02;4.93;;;;;;;27.27;55.33;98417.59;5094989;28;20115;-45
2023/08/26 02:51:02;;;;;;;9.48;4.32;;;;;;;27.32;54.58;98403.16;5094983;28;20024;-45
2023/08/26 02:53:33;;;;;;;6.32;4.60;;;;;;;26.91;54.76;98402.47;5095077;28;20050;-45
2023/08/26 02:56:00;;;;;;;7.72;4.35;;;;;;;26.56;55.92;98415.03;5094981;28;20028;-45
2023/08/26 02:58:25;;;;;;;9.10;5.05;;;;;;;26.35;56.86;98412.91;5093671;28;20024;-45
2023/08/26 03:00:51;;;;;;;18.88;5.68;;;;;;;26.45;57.63;98409.94;5094774;28;20085;-45
2023/08/26 03:03:17;;;;;;;17.95;5.45;;;;;;;26.87;56.99;98417.69;5093272;28;20080;-45
2023/08/26 03:05:42;;;;;;;21.23;6.47;;;;;;;27.11;56.19;98406.44;5094783;28;20765;-45
2023/08/26 03:08:08;;;;;;;13.50;5.50;;;;;;;27.27;55.78;98404.91;5094739;28;20032;-45
2023/08/26 03:10:35;;;;;;;7.03;4.90;;;;;;;27.52;54.85;98407.88;5094629;28;20021;-45
2023/08/26 03:13:01;;;;;;;10.13;4.90;;;;;;;27.18;54.38;98403.28;5093312;28;20546;-44
2023/08/26 03:15:27;;;;;;;12.38;5.57;;;;;;;26.58;55.47;98412.84;5094478;28;20025;-45
2023/08/26 03:17:53;;;;;;;12.98;4.80;;;;;;;26.36;57.06;98409.13;5094451;28;20095;-44
2023/08/26 03:20:19;;;;;;;8.65;4.60;;;;;;;26.41;56.59;98400.13;5094420;28;20107;-45
2023/08/26 03:22:45;;;;;;;9.98;4.03;;;;;;;26.15;57.69;98403.50;5094404;28;20073;-45
2023/08/26 03:25:11;;;;;;;12.68;5.28;;;;;;;26.26;57.89;98415.56;5094248;28;20024;-45
2023/08/26 03:27:37;;;;;;;9.57;5.18;;;;;;;26.38;57.43;98417.69;5094308;28;20030;-46
2023/08/26 03:30:03;;;;;;;13.35;4.80;;;;;;;26.36;57.08;98417.19;5094261;28;20085;-45
2023/08/26 03:32:29;;;;;;;8.50;5.47;;;;;;;26.20;57.26;98424.88;5094440;28;20095;-45
2023/08/26 03:34:54;;;;;;;10.00;5.30;;;;;;;25.82;58.00;98425.28;5094019;28;20549;-45
2023/08/26 03:37:20;;;;;;;11.73;5.45;;;;;;;25.54;59.07;98421.94;5094113;28;20111;-45
2023/08/26 03:39:46;;;;;;;13.02;4.85;;;;;;;25.48;59.33;98431.22;5094082;28;20107;-45
2023/08/26 03:42:11;;;;;;;9.30;4.70;;;;;;;25.44;59.32;98428.34;5094217;28;20474;-45
2023/08/26 03:44:37;;;;;;;16.27;4.93;;;;;;;25.58;58.78;98430.19;5093975;28;20112;-45
2023/08/26 03:47:03;;;;;;;11.27;4.47;;;;;;;25.67;58.26;98433.72;5092560;28;20063;-45
2023/08/26 03:49:30;;;;;;;14.40;4.97;;;;;;;25.67;57.30;98437.19;5093946;28;20027;-44
2023/08/26 03:51:55;;;;;;;11.77;4.32;;;;;;;25.57;56.74;98434.75;5092556;28;20039;-45
2023/08/26 03:54:21;;;;;;;14.13;4.18;;;;;;;25.34;57.00;98436.63;5093672;28;20024;-45
2023/08/26 03:56:47;;;;;;;8.65;3.97;;;;;;;25.27;57.19;98434.38;5092709;28;20055;-45
2023/08/26 03:59:13;;;;;;;16.63;3.92;;;;;;;25.23;56.81;98438.78;5092335;28;20107;-45
2023/08/26 04:01:38;;;;;;;21.17;4.88;;;;;;;25.20;57.10;98443.91;5092083;28;20109;-45
2023/08/26 04:04:04;;;;;;;14.00;4.15;;;;;;;25.17;56.54;98445.28;5093644;28;20051;-45
2023/08/26 04:06:31;;;;;;;13.27;4.13;;;;;;;25.14;56.43;98450.50;5093495;28;20027;-45
2023/08/26 04:08:57;;;;;;;18.80;4.25;;;;;;;25.31;56.00;98450.66;5093476;28;20077;-45
2023/08/26 04:11:23;;;;;;;13.57;3.55;;;;;;;25.35;55.04;98446.28;5092122;28;20020;-45
2023/08/26 04:13:48;;;;;;;13.48;3.20;;;;;;;25.17;54.97;98449.88;5093323;28;20024;-45
2023/08/26 04:16:15;;;;;;;15.15;4.07;;;;;;;24.95;55.09;98453.31;5092104;28;20024;-45
2023/08/26 04:18:42;;;;;;;12.27;3.40;;;;;;;24.76;55.68;98454.22;5093583;28;20024;-45
2023/08/26 04:21:09;;;;;;;19.00;4.43;;;;;;;24.61;56.05;98449.16;5093143;28;20024;-45
2023/08/26 04:23:35;;;;;;;9.00;3.78;;;;;;;24.57;55.95;98450.84;5093236;28;20498;-45
2023/08/26 04:26:02;;;;;;;16.35;4.05;;;;;;;24.60;55.72;98451.03;5093212;28;20103;-44
2023/08/26 04:28:29;;;;;;;12.75;4.22;;;;;;;24.76;55.42;98456.13;5093372;28;20081;-45
2023/08/26 04:30:54;;;;;;;10.93;3.00;;;;;;;24.84;54.81;98452.72;5091847;28;20059;-45
2023/08/26 04:33:20;;;;;;;9.10;3.28;;;;;;;24.79;54.31;98459.00;5093254;28;20442;-45
2023/08/26 04:35:46;;;;;;;9.05;3.05;;;;;;;24.81;54.43;98454.13;5093005;28;20375;-45
2023/08/26 04:38:13;;;;;;;10.02;3.33;;;;;;;24.83;53.82;98459.19;5091627;28;20028;-45
2023/08/26 04:40:40;;;;;;;14.43;3.80;;;;;;;24.80;53.75;98447.16;5092787;28;20047;-45
2023/08/26 04:43:06;;;;;;;8.63;2.85;;;;;;;24.78;53.37;98441.28;5092688;28;20021;-45
2023/08/26 04:45:32;;;;;;;14.57;2.92;;;;;;;24.71;53.40;98443.59;5093072;28;20036;-45
2023/08/26 04:47:57;;;;;;;11.52;3.08;;;;;;;24.64;53.92;98452.03;5092782;28;20020;-45
2023/08/26 04:50:23;;;;;;;11.27;3.17;;;;;;;24.73;53.92;98444.09;5092743;28;20024;-45
2023/08/26 04:52:49;;;;;;;10.40;3.13;;;;;;;24.86;54.03;98451.31;5092736;28;20012;-45
2023/08/26 04:55:14;;;;;;;7.88;2.58;;;;;;;25.06;53.08;98452.78;5091218;28;20064;-45
2023/08/26 04:57:40;;;;;;;7.45;3.08;;;;;;;25.12;52.65;98445.44;5092656;28;20020;-45
2023/08/26 05:00:10;;;;;;;9.50;2.72;;;;;;;24.70;53.30;98458.91;5091231;28;20077;-45
2023/08/26 05:02:37;;;;;;;10.93;4.07;;;;;;;24.27;54.17;98455.69;5092210;28;20055;-45
2023/08/26 05:05:04;;;;;;;9.13;3.17;;;;;;;24.25;54.83;98455.19;5092411;28;20039;-45
2023/08/26 05:07:31;;;;;;;13.10;3.38;;;;;;;24.25;55.05;98457.84;5092377;28;20028;-45
2023/08/26 05:09:56;;;;;;;11.40;3.17;;;;;;;24.38;54.90;98451.69;5092485;28;20513;-45
2023/08/26 05:12:22;;;;;;;11.70;3.22;;;;;;;24.52;54.78;98463.25;5091313;28;20036;-45
2023/08/26 05:14:48;;;;;;;15.90;3.72;;;;;;;24.85;54.39;98465.03;5092232;28;20078;-45
2023/08/26 05:17:14;;;;;;;12.80;3.25;;;;;;;24.94;53.42;98465.16;5092295;28;20036;-45
2023/08/26 05:19:39;;;;;;;6.53;2.47;;;;;;;25.08;53.12;98457.88;5090970;28;20498;-45
2023/08/26 05:22:05;;;;;;;8.52;2.70;;;;;;;25.11;52.51;98460.75;5092385;28;20024;-45
2023/08/26 05:24:31;;;;;;;6.05;2.60;;;;;;;25.12;52.48;98474.97;5092158;28;20062;-45
2023/08/26 05:26:57;;;;;;;7.03;2.75;;;;;;;25.22;52.11;98469.41;5092118;28;20024;-45
2023/08/26 05:29:23;;;;;;;9.15;3.15;;;;;;;25.11;52.20;98476.03;5091971;28;20055;-45
2023/08/26 05:31:49;;;;;;;8.52;3.10;;;;;;;25.12;51.93;98442.75;5092082;28;20134;-45
2023/08/26 05:34:14;;;;;;;15.55;4.03;;;;;;;24.95;52.39;98399.59;5090618;28;20029;-45
2023/08/26 05:36:40;;;;;;;14.60;3.30;;;;;;;25.09;52.87;98397.69;5092043;28;20020;-45
2023/08/26 05:39:06;;;;;;;9.32;3.42;;;;;;;25.09;52.69;98448.69;5091981;28;20038;-45
2023/08/26 05:41:31;;;;;;;19.80;3.75;;;;;;;25.00;53.48;98470.09;5091859;28;20032;-45
2023/08/26 05:43:57;;;;;;;7.55;2.40;;;;;;;24.91;52.66;98461.97;5091920;28;20043;-45
2023/08/26 05:46:23;;;;;;;8.52;3.13;;;;;;;24.81;52.74;98443.41;5090600;28;20100;-45
2023/08/26 05:48:48;;;;;;;5.78;2.33;;;;;;;24.81;52.79;98442.59;5091890;28;20027;-45
2023/08/26 05:51:14;;;;;;;5.10;2.53;;;;;;;24.81;51.91;98451.44;5091876;28;20509;-45
2023/08/26 05:53:40;;;;;;;8.82;2.72;;;;;;;24.85;52.27;98444.38;5091832;28;20490;-45
2023/08/26 05:56:05;;;;;;;7.53;3.33;;;;;;;24.96;51.94;98430.75;5090460;28;20501;-45
2023/08/26 05:58:31;;;;;;;10.13;2.20;;;;;;;25.11;51.32;98423.16;5091835;28;20025;-45
2023/08/26 06:00:56;;;;;;;10.95;2.88;;;;;;;25.17;51.07;98423.81;5090424;28;20082;-45
2023/08/26 06:03:22;;;;;;;11.48;2.40;;;;;;;25.47;50.55;98413.50;5090344;28;20146;-45
2023/08/26 06:05:48;;;;;;;12.90;3.40;;;;;;;26.28;48.95;98415.28;5091744;28;20020;-45
2023/08/26 06:08:13;;;;;;;17.10;5.82;;;;;;;26.79;47.41;98399.59;5091686;28;20024;-45
2023/08/26 06:10:39;;;;;;;10.90;2.58;;;;;;;26.85;46.90;98404.53;5090375;28;20028;-45
2023/08/26 06:13:05;;;;;;;8.30;2.67;;;;;;;27.02;46.12;98408.34;5091691;28;20020;-45
2023/08/26 06:15:30;;;;;;;9.57;2.90;;;;;;;26.81;46.25;98408.94;5090218;28;20065;-45
2023/08/26 06:17:56;;;;;;;14.02;3.15;;;;;;;26.54;46.61;98418.06;5073544;28;20143;-45
2023/08/26 06:20:23;;;;;;;15.30;3.08;;;;;;;26.24;47.19;98419.66;5092667;28;20507;-45
2023/08/26 06:22:48;;;;;;;15.30;6.15;;;;;;;26.02;47.41;98421.31;5095823;28;20032;-45
2023/08/26 06:25:14;;;;;;;15.23;4.25;;;;;;;25.95;47.76;98410.19;5094165;28;20527;-45
2023/08/26 06:27:41;;;;;;;7.43;3.10;;;;;;;25.94;48.23;98407.81;5095509;28;20035;-45
2023/08/26 06:30:08;;;;;;;13.82;3.60;;;;;;;26.03;48.54;98412.13;5095663;28;20428;-45
2023/08/26 06:32:34;;;;;;;20.17;4.07;;;;;;;26.05;48.60;98412.63;5095434;28;20020;-45
2023/08/26 06:35:00;;;;;;;9.18;2.50;;;;;;;26.32;47.35;98402.78;5095322;28;20031;-45
2023/08/26 06:37:26;;;;;;;16.35;3.60;;;;;;;26.08;48.04;98413.91;5095273;28;20032;-45
2023/08/26 06:39:52;;;;;;;7.38;2.30;;;;;;;26.19;47.52;98409.06;5095522;28;20062;-45
2023/08/26 06:42:18;;;;;;;26.40;7.40;;;;;;;26.39;47.76;98392.34;5095251;28;20076;-45
2023/08/26 06:44:43;;;;;;;20.23;3.00;;;;;;;26.66;46.64;98367.13;5093931;28;20062;-45
2023/08/26 06:47:09;;;;;;;9.23;2.13;;;;;;;26.55;46.46;98338.88;5095155;28;20549;-45
2023/08/26 06:49:35;;;;;;;8.65;2.65;;;;;;;26.39;46.93;98376.19;5095075;28;20103;-44
2023/08/26 06:52:02;;;;;;;12.43;3.10;;;;;;;26.40;47.56;98446.94;5095047;28;20024;-45
2023/08/26 06:54:28;;;;;;;15.75;6.50;;;;;;;26.34;47.44;98488.56;5094961;28;20116;-45
2023/08/26 06:56:54;;;;;;;20.40;5.10;;;;;;;26.33;47.64;98501.22;5093617;28;20016;-45
2023/08/26 06:59:20;;;;;;;10.88;2.80;;;;;;;26.68;46.75;98490.63;5094909;28;20031;-45
2023/08/26 07:01:45;;;;;;;31.77;6.68;;;;;;;27.12;46.15;98507.69;5094578;28;20051;-45
2023/08/26 07:04:11;;;;;;;7.00;2.53;;;;;;;27.38;46.24;98513.16;5093571;28;20107;-45
2023/08/26 07:06:38;;;;;;;11.00;3.33;;;;;;;27.18;47.79;98514.53;5094772;28;20546;-45
2023/08/26 07:09:04;;;;;;;14.63;3.90;;;;;;;26.83;48.78;98522.53;5093356;28;20054;-45
2023/08/26 07:11:31;;;;;;;5.63;2.33;;;;;;;26.59;47.76;98516.72;5094621;28;20048;-45
2023/08/26 07:13:57;;;;;;;10.18;2.60;;;;;;;26.57;47.50;98517.00;5094534;28;20017;-45
2023/08/26 07:16:24;;;;;;;16.05;3.70;;;;;;;26.58;47.56;98513.25;5094590;28;20405;-45
2023/08/26 07:18:50;;;;;;;8.18;2.33;;;;;;;26.54;47.35;98512.25;5094546;28;20020;-45
2023/08/26 07:21:16;;;;;;;25.50;3.60;;;;;;;26.56;49.16;98544.22;5093111;28;20039;-45
2023/08/26 07:23:41;;;;;;;21.13;3.83;;;;;;;26.33;50.71;98533.50;5094475;28;20027;-45
2023/08/26 07:26:07;;;;;;;14.45;3.00;;;;;;;26.09;51.59;98512.31;5093019;28;20501;-45
2023/08/26 07:28:32;;;;;;;7.20;3.10;;;;;;;25.97;52.13;98512.88;5094387;28;20144;-45
2023/08/26 07:31:06;;;;;;;4.38;2.13;;;;;;;25.70;52.40;98511.84;5094194;28;20024;-45
2023/08/26 07:33:32;;;;;;;10.88;3.30;;;;;;;25.41;53.47;98524.88;5092859;28;20031;-45
2023/08/26 07:36:09;;;;;;;25.08;3.88;;;;;;;25.31;54.21;98532.06;5094179;28;20482;-45
2023/08/26 07:38:35;;;;;;;15.30;3.08;;;;;;;25.11;55.51;98522.53;5094137;28;20107;-44
2023/08/26 07:41:00;;;;;;;9.85;3.38;;;;;;;24.77;56.80;98527.47;5092876;28;20103;-44
2023/08/26 07:43:26;;;;;;;10.55;3.13;;;;;;;24.40;57.40;98530.00;5092817;28;20031;-44
2023/08/26 07:45:52;;;;;;;14.75;2.85;;;;;;;23.63;58.71;98523.13;5093936;28;20032;-44
2023/08/26 07:48:18;;;;;;;11.77;2.90;;;;;;;22.75;62.23;98519.94;5092665;28;20020;-44
2023/08/26 07:50:43;;;;;;;9.73;2.58;;;;;;;22.00;66.05;98509.66;5093767;28;20107;-44
2023/08/26 07:53:09;;;;;;;15.90;3.38;;;;;;;21.42;70.52;98480.91;5092517;28;20439;-44
2023/08/26 07:55:35;;;;;;;9.02;3.10;;;;;;;21.11;75.04;98460.50;5093968;28;20039;-44
2023/08/26 07:58:01;;;;;;;8.23;3.13;;;;;;;20.76;78.51;98461.44;5093719;28;20044;-44
2023/08/26 08:00:27;;;;;;;15.65;3.75;;;;;;;20.46;82.18;98476.44;5093691;28;20051;-44
2023/08/26 08:02:55;;;;;;;21.85;4.53;;;;;;;20.19;84.29;98475.97;5093414;28;20044;-44
2023/08/26 08:05:21;;;;;;;6.70;3.00;;;;;;;20.07;86.98;98506.34;5093645;28;20055;-44
2023/08/26 08:07:47;;;;;;;9.75;3.67;;;;;;;19.99;88.94;98519.41;5093563;28;20024;-44
2023/08/26 08:10:13;;;;;;;11.65;4.95;;;;;;;19.99;90.96;98538.84;5092308;28;20024;-44
2023/08/26 08:12:38;;;;;;;9.60;3.72;;;;;;;20.14;92.83;98541.50;5093503;28;20024;-44
2023/08/26 08:15:05;;;;;;;16.10;3.83;;;;;;;20.31;93.42;98546.56;5093297;28;20058;-44
2023/08/26 08:17:31;;;;;;;19.25;4.70;;;;;;;20.51;93.75;98526.28;5093284;28;20489;-44
2023/08/26 08:19:57;;;;;;;10.00;4.00;;;;;;;20.60;93.47;98511.34;5093364;28;20070;-43
2023/08/26 08:22:43;;;;;;;9.25;2.90;;;;;;;20.65;92.82;98503.34;5093301;28;20428;-43
2023/08/26 08:25:10;;;;;;;15.43;4.10;;;;;;;20.68;94.32;98513.47;5091687;28;20115;-43
2023/08/26 08:27:37;;;;;;;10.88;4.80;;;;;;;20.57;93.98;98503.09;5093414;28;20046;-43
2023/08/26 08:30:04;;;;;;;12.02;4.40;;;;;;;20.53;95.51;98497.50;5093324;28;20028;-43
2023/08/26 08:32:30;;;;;;;7.82;3.30;;;;;;;20.52;96.77;98502.03;5093145;28;20478;-43
2023/08/26 08:34:56;;;;;;;12.65;3.20;;;;;;;20.30;95.42;98506.84;5092995;28;20031;-43
2023/08/26 08:37:22;;;;;;;12.73;4.75;;;;;;;19.99;95.27;98517.53;5093048;28;20028;-43
2023/08/26 08:39:47;;;;;;;15.90;4.20;;;;;;;19.76;96.04;98521.50;5092016;28;20099;-43
2023/08/26 08:42:15;;;;;;;13.38;3.58;;;;;;;19.51;96.67;98543.50;5091602;28;20489;-43
2023/08/26 08:44:43;;;;;;;12.10;4.70;;;;;;;19.34;98.19;98557.03;5092426;28;20031;-43
2023/08/26 08:47:10;;;;;;;22.30;9.00;;;;;;;19.34;100.00;98567.69;5093094;28;20483;-43
2023/08/26 08:49:37;;;;;;;22.60;15.40;;;;;;;19.39;100.00;98565.03;5091476;28;20032;-43
2023/08/26 08:52:04;;;;;;;109.25;97.72;;;;;;;19.46;100.00;98583.44;5092655;28;20082;-43
2023/08/26 08:54:30;;;;;;;68.97;56.70;;;;;;;19.66;100.00;98567.53;5092635;28;20024;-43
2023/08/26 08:56:56;;;;;;;124.90;113.55;;;;;;;19.79;100.00;98562.78;5092634;28;20122;-43
2023/08/26 08:59:24;;;;;;;35.70;28.50;;;;;;;19.93;100.00;98545.22;5092624;28;20035;-43
2023/08/26 09:01:54;;;;;;;1022.03;858.33;;;;;;;19.97;100.00;98532.97;5091066;28;20044;-43
2023/08/26 09:04:21;;;;;;;781.58;576.90;;;;;;;19.89;100.00;98541.50;5092439;28;20112;-43
2023/08/26 09:06:48;;;;;;;117.22;102.93;;;;;;;19.66;100.00;98551.53;5092412;28;20708;-43
2023/08/26 09:09:16;;;;;;;46.47;35.78;;;;;;;19.72;100.00;98563.84;5092689;28;20020;-43
2023/08/26 09:11:42;;;;;;;35.80;29.10;;;;;;;19.54;100.00;98562.44;5091107;28;20097;-43
2023/08/26 09:14:08;;;;;;;38.95;27.10;;;;;;;19.37;100.00;98569.81;5092261;28;20039;-43
2023/08/26 09:16:36;;;;;;;16.10;9.88;;;;;;;19.30;100.00;98548.78;5091042;28;20020;-43
2023/08/26 09:19:04;;;;;;;12.95;4.78;;;;;;;19.03;100.00;98553.44;5092284;28;20525;-43
2023/08/26 09:21:30;;;;;;;11.68;4.63;;;;;;;18.70;100.00;98564.13;5092265;28;20050;-43
2023/08/26 09:23:56;;;;;;;14.60;5.32;;;;;;;18.54;100.00;98557.91;5090935;28;20036;-43
2023/08/26 09:26:26;;;;;;;26.23;15.43;;;;;;;18.45;100.00;98575.41;5092135;28;20506;-43
2023/08/26 09:28:52;;;;;;;13.07;4.15;;;;;;;18.41;100.00;98563.69;5092107;28;20043;-43
2023/08/26 09:31:20;;;;;;;16.83;6.97;;;;;;;18.36;100.00;98563.63;5092176;28;20382;-43
2023/08/26 09:33:50;;;;;;;30.98;17.55;;;;;;;18.37;100.00;98575.84;5091992;28;20020;-44
2023/08/26 09:36:17;;;;;;;25.85;7.85;;;;;;;18.51;100.00;98569.06;5074263;28;20490;-44
2023/08/26 09:38:44;;;;;;;13.38;6.57;;;;;;;18.76;100.00;98565.75;5091017;28;20071;-43
2023/08/26 09:41:10;;;;;;;18.85;5.90;;;;;;;18.80;100.00;98566.09;5091925;28;20020;-44
2023/08/26 09:43:40;;;;;;;23.58;6.53;;;;;;;18.83;100.00;98546.16;5073816;28;20064;-44
2023/08/26 09:46:06;;;;;;;11.50;4.35;;;;;;;18.87;100.00;98532.06;5091856;28;20020;-43
2023/08/26 09:48:34;;;;;;;13.38;5.53;;;;;;;18.82;100.00;98539.25;5091941;28;20036;-43
2023/08/26 09:51:00;;;;;;;11.23;6.43;;;;;;;18.74;100.00;98540.50;5091833;28;20078;-43
2023/08/26 09:53:30;;;;;;;22.50;6.13;;;;;;;19.04;100.00;98533.78;5090562;28;20028;-43
2023/08/26 09:55:59;;;;;;;26.00;7.18;;;;;;;19.32;100.00;98528.03;5094260;28;20491;-42
2023/08/26 09:58:26;;;;;;;15.48;6.38;;;;;;;19.38;100.00;98512.06;5096053;28;20020;-43
2023/08/26 10:00:55;;;;;;;20.52;5.05;;;;;;;19.39;100.00;98519.78;5096004;28;20497;-43
2023/08/26 10:03:24;;;;;;;17.70;6.18;;;;;;;19.14;100.00;98505.34;5095754;28;20545;-43
2023/08/26 10:05:58;;;;;;;31.13;8.57;;;;;;;19.18;100.00;98497.66;5095773;28;20077;-43
2023/08/26 10:08:32;;;;;;;21.30;7.38;;;;;;;19.48;100.00;98504.91;5094660;28;20409;-43
2023/08/26 10:11:03;;;;;;;23.35;6.43;;;;;;;19.85;100.00;98492.47;5094556;28;20059;-43
2023/08/26 10:13:34;;;;;;;14.13;5.65;;;;;;;19.92;100.00;98516.97;5095773;28;20158;-43
2023/08/26 10:16:00;;;;;;;14.27;3.70;;;;;;;20.01;100.00;98530.59;5095776;28;20452;-43
2023/08/26 10:18:56;;;;;;;11.50;3.25;;;;;;;19.83;100.00;98508.72;5095716;28;20074;-43
2023/08/26 10:21:22;;;;;;;9.57;3.78;;;;;;;19.90;100.00;98540.41;5090221;28;20029;-43
2023/08/26 10:23:49;;;;;;;18.75;4.32;;;;;;;19.99;100.00;98554.81;5095553;28;20043;-43
2023/08/26 10:26:19;;;;;;;28.05;6.53;;;;;;;20.22;100.00;98577.50;5094242;28;20027;-44
2023/08/26 10:28:46;;;;;;;12.55;4.43;;;;;;;20.65;100.00;98553.22;5095744;28;20028;-43
2023/08/26 10:31:14;;;;;;;9.55;4.30;;;;;;;20.47;100.00;98531.34;5095403;28;20017;-44
2023/08/26 10:34:01;;;;;;;13.60;5.63;;;;;;;20.31;100.00;98458.63;5095305;28;20073;-44
2023/08/26 10:36:28;;;;;;;19.10;6.15;;;;;;;20.27;100.00;98435.44;5095346;28;20568;-44
2023/08/26 10:38:58;;;;;;;9.20;4.78;;;;;;;20.47;100.00;98523.38;5095261;28;20028;-43
2023/08/26 10:41:24;;;;;;;23.27;6.63;;;;;;;20.41;100.00;98575.09;5095489;28;20077;-43
2023/08/26 10:43:54;;;;;;;20.85;4.40;;;;;;;20.57;100.00;98551.09;5095165;28;20514;-44
2023/08/26 10:46:34;;;;;;;9.07;3.90;;;;;;;20.49;100.00;98523.88;5095116;28;20012;-44
2023/08/26 10:49:03;;;;;;;13.45;4.38;;;;;;;20.12;100.00;98535.66;5095098;28;20020;-44
2023/08/26 10:51:30;;;;;;;9.98;4.32;;;;;;;19.93;100.00;98524.69;5095005;28;20527;-44
2023/08/26 10:54:05;;;;;;;8.63;4.25;;;;;;;19.79;100.00;98512.19;5094946;28;20473;-44
2023/08/26 10:56:39;;;;;;;15.70;6.20;;;;;;;19.67;100.00;98501.75;5094985;28;20023;-44
2023/08/26 10:59:06;;;;;;;11.68;5.45;;;;;;;19.66;100.00;98468.19;5094895;28;20117;-44
2023/08/26 11:01:35;;;;;;;16.45;5.28;;;;;;;20.05;100.00;98497.81;5094604;28;20052;-44
2023/08/26 11:04:03;;;;;;;6.30;3.97;;;;;;;20.25;100.00;98493.53;5093625;28;20024;-45
2023/08/26 11:06:38;;;;;;;7.68;3.65;;;;;;;20.14;100.00;98516.72;5093198;28;20024;-45
2023/08/26 11:09:04;;;;;;;14.73;4.65;;;;;;;20.10;100.00;98523.63;5093496;28;20028;-45
2023/08/26 11:11:31;;;;;;;16.35;6.05;;;;;;;20.30;100.00;98526.31;5094640;28;20532;-44
2023/08/26 11:13:57;;;;;;;25.52;4.75;;;;;;;20.71;100.00;98536.94;5094587;28;20012;-44
2023/08/26 11:16:23;;;;;;;14.73;5.38;;;;;;;20.74;100.00;98535.59;5094526;28;20031;-44
2023/08/26 11:18:52;;;;;;;8.98;3.72;;;;;;;20.73;100.00;98526.81;5094551;28;20452;-44
2023/08/26 11:21:18;;;;;;;14.20;4.43;;;;;;;20.65;100.00;98526.56;5094755;28;20032;-44
2023/08/26 11:23:47;;;;;;;13.50;4.22;;;;;;;20.65;100.00;98519.38;5094460;28;20082;-44